Nur fliegen ist schöner ....

Willkommen beim Flugservice Bautzen GmbH

Wir sind eine nach europäischen Richtlinien zugelassene Flugschule und lizenziertes Luftfahrtunternehmen. Bei uns können sie nicht nur Rundflüge über die Oberlausitz oder Sachsen buchen, sondern in unserer Flugschule selber das Fliegen erlernen. Erfahrene Fluglehrer stehen Ihnen dabei zur Seite.

Wir bieten Ihnen außerdem spezielle Flüge zur Vermessung oder Fotoflüge für Luftbildaufnahmen an. In Zusammenarbeit mit dem Fallschirmsportclub Dresden und dem Cottbuser Fallschirmsportclub setzen wir am Flugplatz Bautzen und Neuhausen Fallschirmspringer ab.
Schauen Sie sich in Ruhe bei uns um und wenn Sie Fragen haben oder weitere Informationen benötigen, scheuen Sie sich nicht Kontakt mit uns aufzunehmen.

Gutscheine für Rundflüge und Tandemsprünge können Sie ganz leicht auch online in unserem Shop erwerben.

Terminkalender

Letzter Monat Januar 2023 Nächster Monat
Mo Di Mi Do Fr Sa So
week 52 1
week 1 2 3 4 5 6 7 8
week 2 9 10 11 12 13 14 15
week 3 16 17 18 19 20 21 22
week 4 23 24 25 26 27 28 29
week 5 30 31

Flugwetterinfo

[Quelle: ADDS]
METAR
EDDC 281250Z AUTO 35007KT 320V020 9999 OVC021 M02/M06 Q1027 NOSIG =
EDDC 281100Z 2812/2912 36005KT 9999 BKN025 BECMG 2815/2817 28004KT BECMG 2823/2901 22007KT PROB30 TEMPO 2908/2912 SCT009 BKN013
TAF
EDDC 281100Z 2812/2912 36005KT 9999 BKN025 BECMG 2815/2817 28004KT BECMG 2823/2901 22007KT PROB30 TEMPO 2908/2912 SCT009 BKN013 =
SR / SS: 06:45 / 15:44 UTC (EDAB Flugplatz Bautzen 2023-01-28)

Öffnungszeiten

des Flugplatzes Bautzen erfahren Sie hier:

flugplatz bautzen logo
Flugservice Bautzen GmbH, Kornmarkt 34, 02625 Bautzen  Telefon: +49 (3591) 211105, Mobil: +49 160 5371164, E-Mail:  flugservice(at)fsbautzen.de
Wir benutzen Cookies
Wir nutzen nur Cookies auf unserer Website, die essenziell für den Betrieb der Seite sind. Sie können selbst entscheiden, ob Sie die Cookies zulassen möchten. Bitte beachten Sie, dass bei einer Ablehnung womöglich nicht mehr alle Funktionalitäten der Seite zur Verfügung stehen.